Time;durP1;ratioP1;P1;durP2;ratioP2;P2;SDS_P1;SDS_P2;PMS_P1;PMS_P2;Temp;Humidity;BMP_temperature;BMP_pressure;BME280_temperature;BME280_humidity;BME280_pressure;Samples;Min_cycle;Max_cycle;Signal;HPM_P1;HPM_P2
2023/08/10 00:00:59;;;;;;;0.20;0.20;;;;;;;;;;5035218;28;20034;-69
2023/08/10 00:03:25;;;;;;;0.20;0.20;;;;;;;;;;5034857;28;20370;-69
2023/08/10 00:05:51;;;;;;;0.20;0.20;;;;;;;;;;5034851;28;20056;-69
2023/08/10 00:08:16;;;;;;;0.20;0.20;;;;;;;;;;5034733;28;20091;-69
2023/08/10 00:10:42;;;;;;;0.85;0.85;;;;;;;;;;5034492;28;20037;-69
2023/08/10 00:13:08;;;;;;;0.20;0.20;;;;;;;;;;5034600;28;20041;-68
2023/08/10 00:15:34;;;;;;;0.20;0.20;;;;;;;;;;5034080;28;20116;-70
2023/08/10 00:18:00;;;;;;;0.30;0.30;;;;;;;;;;5016470;28;20428;-69
2023/08/10 00:20:25;;;;;;;0.52;0.52;;;;;;;;;;5034520;28;20037;-69
2023/08/10 00:22:52;;;;;;;0.20;0.20;;;;;;;;;;5034591;28;20124;-69
2023/08/10 00:25:18;;;;;;;0.13;0.13;;;;;;;;;;5016772;28;20480;-69
2023/08/10 00:27:43;;;;;;;0.20;0.20;;;;;;;;;;5034657;28;20044;-69
2023/08/10 00:30:09;;;;;;;0.20;0.20;;;;;;;;;;5035896;28;20155;-70
2023/08/10 00:32:36;;;;;;;0.10;0.10;;;;;;;;;;5035054;28;20038;-68
2023/08/10 00:35:02;;;;;;;0.20;0.20;;;;;;;;;;5034307;28;20041;-69
2023/08/10 00:37:28;;;;;;;0.20;0.20;;;;;;;;;;5034239;28;20543;-69
2023/08/10 00:39:54;;;;;;;0.20;0.20;;;;;;;;;;5034082;28;20069;-69
2023/08/10 00:42:19;;;;;;;0.20;0.20;;;;;;;;;;5034517;28;20030;-69
2023/08/10 00:44:45;;;;;;;0.17;0.17;;;;;;;;;;5033273;28;20049;-69
2023/08/10 00:47:11;;;;;;;0.20;0.20;;;;;;;;;;5016633;28;20029;-68
2023/08/10 00:49:37;;;;;;;0.20;0.20;;;;;;;;;;5033858;28;20041;-69
2023/08/10 00:52:03;;;;;;;0.20;0.20;;;;;;;;;;5034028;28;20079;-69
2023/08/10 00:54:29;;;;;;;0.15;0.15;;;;;;;;;;5033872;28;20518;-68
2023/08/10 00:56:55;;;;;;;0.20;0.20;;;;;;;;;;5034004;28;20030;-69
2023/08/10 00:59:22;;;;;;;0.20;0.20;;;;;;;;;;5033832;28;20053;-69
2023/08/10 01:01:48;;;;;;;0.20;0.20;;;;;;;;;;5033803;28;20461;-69
2023/08/10 01:04:13;;;;;;;0.20;0.20;;;;;;;;;;5033986;28;20084;-69
2023/08/10 01:06:58;;;;;;;0.20;0.20;;;;;;;;;;5034072;28;20079;-69
2023/08/10 01:09:42;;;;;;;0.20;0.20;;;;;;;;;;5033936;28;20036;-69
2023/08/10 01:12:17;;;;;;;0.20;0.20;;;;;;;;;;5016058;28;20048;-69
2023/08/10 01:14:46;;;;;;;0.20;0.20;;;;;;;;;;4999621;28;20099;-70
2023/08/10 01:17:14;;;;;;;0.20;0.20;;;;;;;;;;5033606;28;20068;-69
2023/08/10 01:19:42;;;;;;;0.20;0.20;;;;;;;;;;5033752;28;20501;-68
2023/08/10 01:22:16;;;;;;;0.20;0.20;;;;;;;;;;5033501;28;20041;-69
2023/08/10 01:24:43;;;;;;;0.22;0.22;;;;;;;;;;4999634;28;20065;-69
2023/08/10 01:27:13;;;;;;;0.20;0.20;;;;;;;;;;5033519;28;20026;-69
2023/08/10 01:29:39;;;;;;;0.25;0.25;;;;;;;;;;5032112;28;20034;-69
2023/08/10 01:32:05;;;;;;;0.20;0.20;;;;;;;;;;5033311;28;20080;-69
2023/08/10 01:34:30;;;;;;;0.10;0.10;;;;;;;;;;5033485;28;20064;-69
2023/08/10 01:36:57;;;;;;;0.20;0.20;;;;;;;;;;5033114;28;20390;-69
2023/08/10 01:39:22;;;;;;;0.20;0.20;;;;;;;;;;5015820;28;20038;-69
2023/08/10 01:41:48;;;;;;;0.20;0.20;;;;;;;;;;5033205;28;20508;-69
2023/08/10 01:44:13;;;;;;;0.25;0.25;;;;;;;;;;5033231;28;20037;-69
2023/08/10 01:46:40;;;;;;;0.20;0.20;;;;;;;;;;5032910;28;20033;-68
2023/08/10 01:49:10;;;;;;;0.25;0.25;;;;;;;;;;5033256;28;20033;-69
2023/08/10 01:51:38;;;;;;;0.20;0.20;;;;;;;;;;5015753;28;20033;-69
2023/08/10 01:54:06;;;;;;;0.20;0.20;;;;;;;;;;5033203;28;20044;-69
2023/08/10 01:56:32;;;;;;;0.20;0.20;;;;;;;;;;5031445;28;20203;-69
2023/08/10 01:58:57;;;;;;;0.20;0.20;;;;;;;;;;5015173;28;20144;-70
2023/08/10 02:01:23;;;;;;;0.20;0.20;;;;;;;;;;5032966;28;20090;-69
2023/08/10 02:03:49;;;;;;;0.50;0.40;;;;;;;;;;5033098;28;20040;-69
2023/08/10 02:06:14;;;;;;;0.17;0.17;;;;;;;;;;5015394;28;20030;-69
2023/08/10 02:08:41;;;;;;;0.20;0.20;;;;;;;;;;5032909;28;20065;-69
2023/08/10 02:11:08;;;;;;;0.20;0.20;;;;;;;;;;5032836;28;20041;-69
2023/08/10 02:13:34;;;;;;;0.10;0.10;;;;;;;;;;5014851;28;20080;-69
2023/08/10 02:16:00;;;;;;;0.20;0.20;;;;;;;;;;5014866;28;20045;-69
2023/08/10 02:18:26;;;;;;;0.20;0.20;;;;;;;;;;5015340;28;20025;-69
2023/08/10 02:20:51;;;;;;;0.13;0.13;;;;;;;;;;5032612;28;20091;-69
2023/08/10 02:23:17;;;;;;;0.10;0.10;;;;;;;;;;5015294;28;20037;-69
2023/08/10 02:25:43;;;;;;;0.20;0.20;;;;;;;;;;5015542;28;20056;-68
2023/08/10 02:28:10;;;;;;;0.20;0.20;;;;;;;;;;5014152;28;20029;-68
2023/08/10 02:30:35;;;;;;;0.20;0.20;;;;;;;;;;5033914;28;20041;-69
2023/08/10 02:33:01;;;;;;;0.20;0.20;;;;;;;;;;5032659;28;20037;-68
2023/08/10 02:35:27;;;;;;;0.10;0.10;;;;;;;;;;5015039;28;20038;-69
2023/08/10 02:37:52;;;;;;;0.17;0.17;;;;;;;;;;5031805;28;20542;-68
2023/08/10 02:40:18;;;;;;;0.20;0.20;;;;;;;;;;5032533;28;20038;-70
2023/08/10 02:42:44;;;;;;;0.20;0.20;;;;;;;;;;5014609;28;20045;-68
2023/08/10 02:45:10;;;;;;;0.20;0.20;;;;;;;;;;5032257;28;20034;-69
2023/08/10 02:47:36;;;;;;;0.20;0.20;;;;;;;;;;5032644;28;20030;-69
2023/08/10 02:50:02;;;;;;;0.20;0.20;;;;;;;;;;5032378;28;20040;-69
2023/08/10 02:52:28;;;;;;;0.20;0.20;;;;;;;;;;4998518;28;20440;-69
2023/08/10 02:54:53;;;;;;;0.20;0.20;;;;;;;;;;5030340;28;20049;-69
2023/08/10 02:57:19;;;;;;;0.22;0.22;;;;;;;;;;5031896;28;20489;-69
2023/08/10 02:59:45;;;;;;;0.20;0.20;;;;;;;;;;5032261;28;20037;-69
2023/08/10 03:02:10;;;;;;;0.20;0.20;;;;;;;;;;5029314;28;20361;-70
2023/08/10 03:04:36;;;;;;;0.20;0.20;;;;;;;;;;5027623;28;20040;-69
2023/08/10 03:07:02;;;;;;;0.20;0.20;;;;;;;;;;5010464;28;20451;-69
2023/08/10 03:09:27;;;;;;;0.20;0.20;;;;;;;;;;5030527;28;20072;-70
2023/08/10 03:11:53;;;;;;;0.10;0.10;;;;;;;;;;5031439;28;20544;-70
2023/08/10 03:14:19;;;;;;;0.20;0.20;;;;;;;;;;5031751;28;20123;-71
2023/08/10 03:16:45;;;;;;;0.20;0.20;;;;;;;;;;5014186;28;20120;-72
2023/08/10 03:19:10;;;;;;;0.20;0.20;;;;;;;;;;5013653;28;20108;-71
2023/08/10 03:21:36;;;;;;;0.20;0.20;;;;;;;;;;5012913;28;20071;-70
2023/08/10 03:24:02;;;;;;;0.35;0.35;;;;;;;;;;5031945;28;20025;-69
2023/08/10 03:26:28;;;;;;;0.20;0.20;;;;;;;;;;5015427;28;20381;-71
2023/08/10 03:28:55;;;;;;;0.20;0.20;;;;;;;;;;5024866;28;20033;-69
2023/08/10 03:31:23;;;;;;;0.25;0.25;;;;;;;;;;5013664;28;20455;-69
2023/08/10 03:33:50;;;;;;;0.20;0.20;;;;;;;;;;5013485;28;20120;-69
2023/08/10 03:36:18;;;;;;;0.20;0.20;;;;;;;;;;5012431;28;20101;-69
2023/08/10 03:38:44;;;;;;;0.20;0.20;;;;;;;;;;5027406;28;20060;-69
2023/08/10 03:41:10;;;;;;;0.20;0.20;;;;;;;;;;5013309;28;20493;-69
2023/08/10 03:43:35;;;;;;;0.20;0.20;;;;;;;;;;5031218;28;20491;-70
2023/08/10 03:46:02;;;;;;;0.20;0.20;;;;;;;;;;5031334;28;20079;-69
2023/08/10 03:48:29;;;;;;;0.20;0.20;;;;;;;;;;5013192;28;20029;-70
2023/08/10 03:50:54;;;;;;;0.35;0.30;;;;;;;;;;5014893;28;20037;-69
2023/08/10 03:53:20;;;;;;;0.60;0.60;;;;;;;;;;5031195;28;20472;-69
2023/08/10 03:55:46;;;;;;;0.20;0.20;;;;;;;;;;5012780;28;20034;-71
2023/08/10 03:58:12;;;;;;;2.20;1.20;;;;;;;;;;5030226;28;20373;-70
2023/08/10 04:00:44;;;;;;;0.28;0.28;;;;;;;;;;5013879;28;20028;-69
2023/08/10 04:03:10;;;;;;;0.20;0.20;;;;;;;;;;4995432;28;20108;-70
2023/08/10 04:05:36;;;;;;;0.10;0.10;;;;;;;;;;5038581;28;20032;-72
2023/08/10 04:08:03;;;;;;;0.10;0.10;;;;;;;;;;5017784;28;20037;-70
2023/08/10 04:10:30;;;;;;;0.10;0.10;;;;;;;;;;5030701;28;20049;-69
2023/08/10 04:12:56;;;;;;;0.10;0.10;;;;;;;;;;5029298;28;20036;-71
2023/08/10 04:15:21;;;;;;;0.10;0.10;;;;;;;;;;5030526;28;20038;-70
2023/08/10 04:17:47;;;;;;;0.20;0.20;;;;;;;;;;5012806;28;20033;-69
2023/08/10 04:20:13;;;;;;;0.20;0.20;;;;;;;;;;5012636;28;20137;-69
2023/08/10 04:22:40;;;;;;;0.10;0.10;;;;;;;;;;5029980;28;20091;-69
2023/08/10 04:25:07;;;;;;;0.20;0.20;;;;;;;;;;5030505;28;20037;-71
2023/08/10 04:27:35;;;;;;;0.20;0.20;;;;;;;;;;5013516;28;20025;-71
2023/08/10 04:30:04;;;;;;;0.20;0.20;;;;;;;;;;5030522;28;20175;-70
2023/08/10 04:32:30;;;;;;;0.20;0.20;;;;;;;;;;5030420;28;20033;-70
2023/08/10 04:34:55;;;;;;;0.20;0.20;;;;;;;;;;5012281;28;20083;-71
2023/08/10 04:37:21;;;;;;;0.10;0.10;;;;;;;;;;5030109;28;20500;-73
2023/08/10 04:39:47;;;;;;;0.10;0.10;;;;;;;;;;5012377;28;20037;-69
2023/08/10 04:42:14;;;;;;;0.10;0.10;;;;;;;;;;4995805;28;20040;-73
2023/08/10 04:44:39;;;;;;;0.20;0.20;;;;;;;;;;5030354;28;20069;-70
2023/08/10 04:47:05;;;;;;;0.10;0.10;;;;;;;;;;5030151;28;20490;-69
2023/08/10 04:49:31;;;;;;;0.10;0.10;;;;;;;;;;5030138;28;20393;-69
2023/08/10 04:51:57;;;;;;;0.10;0.10;;;;;;;;;;5031892;28;20477;-69
2023/08/10 04:54:23;;;;;;;0.10;0.10;;;;;;;;;;5030145;28;20099;-70
2023/08/10 04:56:49;;;;;;;0.10;0.10;;;;;;;;;;5030159;28;20037;-69
2023/08/10 04:59:15;;;;;;;0.20;0.20;;;;;;;;;;5033706;28;20846;-72
2023/08/10 05:01:41;;;;;;;0.10;0.10;;;;;;;;;;5028498;28;20492;-71
2023/08/10 05:04:07;;;;;;;0.20;0.20;;;;;;;;;;5030281;28;20167;-69
2023/08/10 05:06:34;;;;;;;0.20;0.20;;;;;;;;;;5029849;28;20021;-69
2023/08/10 05:09:01;;;;;;;0.63;0.63;;;;;;;;;;5030143;28;20030;-69
2023/08/10 05:11:26;;;;;;;0.17;0.17;;;;;;;;;;5030446;28;20033;-68
2023/08/10 05:13:52;;;;;;;0.20;0.20;;;;;;;;;;4999899;28;20553;-70
2023/08/10 05:16:18;;;;;;;3.22;3.13;;;;;;;;;;5029757;28;20037;-70
2023/08/10 05:18:43;;;;;;;0.20;0.20;;;;;;;;;;5036255;28;20488;-69
2023/08/10 05:21:09;;;;;;;0.20;0.20;;;;;;;;;;5034170;28;20944;-69
2023/08/10 05:23:37;;;;;;;0.20;0.20;;;;;;;;;;5029350;28;20044;-70
2023/08/10 05:26:02;;;;;;;0.10;0.10;;;;;;;;;;5029818;28;20037;-69
2023/08/10 05:28:28;;;;;;;0.20;0.20;;;;;;;;;;5029278;28;20048;-69
2023/08/10 05:30:54;;;;;;;0.25;0.25;;;;;;;;;;5027265;28;20038;-69
2023/08/10 05:33:19;;;;;;;0.20;0.20;;;;;;;;;;5029664;28;20040;-69
2023/08/10 05:35:46;;;;;;;0.20;0.20;;;;;;;;;;5028451;28;20033;-70
2023/08/10 05:38:12;;;;;;;0.20;0.20;;;;;;;;;;5027059;28;20033;-71
2023/08/10 05:40:38;;;;;;;0.20;0.20;;;;;;;;;;5028053;28;20052;-69
2023/08/10 05:43:04;;;;;;;0.20;0.20;;;;;;;;;;5023096;28;20053;-68
2023/08/10 05:45:30;;;;;;;0.20;0.20;;;;;;;;;;5010184;28;20040;-69
2023/08/10 05:47:56;;;;;;;0.20;0.20;;;;;;;;;;5015716;28;20040;-69
2023/08/10 05:50:22;;;;;;;0.82;0.57;;;;;;;;;;5029162;28;20037;-72
2023/08/10 05:52:48;;;;;;;0.20;0.20;;;;;;;;;;5028752;28;20424;-70
2023/08/10 05:55:14;;;;;;;0.47;0.28;;;;;;;;;;5029117;28;20092;-72
2023/08/10 05:57:40;;;;;;;0.20;0.20;;;;;;;;;;5011406;28;20083;-69
2023/08/10 06:00:07;;;;;;;0.20;0.20;;;;;;;;;;5010751;28;20472;-69
2023/08/10 06:02:39;;;;;;;0.20;0.20;;;;;;;;;;5028620;28;20040;-68
2023/08/10 06:05:06;;;;;;;0.20;0.20;;;;;;;;;;5028882;28;20474;-70
2023/08/10 06:07:34;;;;;;;0.20;0.20;;;;;;;;;;5028721;28;20033;-72
2023/08/10 06:10:00;;;;;;;0.20;0.20;;;;;;;;;;5028851;28;20056;-70
2023/08/10 06:12:25;;;;;;;0.20;0.20;;;;;;;;;;5028912;28;20037;-70
2023/08/10 06:14:51;;;;;;;0.20;0.20;;;;;;;;;;5028452;28;20155;-70
2023/08/10 06:17:16;;;;;;;0.73;0.73;;;;;;;;;;5028675;28;20034;-70
2023/08/10 06:19:49;;;;;;;0.10;0.10;;;;;;;;;;5028453;28;20514;-71
2023/08/10 06:22:14;;;;;;;0.10;0.10;;;;;;;;;;5027430;28;20063;-70
2023/08/10 06:24:40;;;;;;;0.20;0.20;;;;;;;;;;5018674;28;20072;-71
2023/08/10 06:27:06;;;;;;;0.30;0.30;;;;;;;;;;5015684;28;20037;-70
2023/08/10 06:29:31;;;;;;;0.20;0.20;;;;;;;;;;5029076;28;20034;-72
2023/08/10 06:31:57;;;;;;;0.20;0.20;;;;;;;;;;5035032;28;20055;-72
2023/08/10 06:34:22;;;;;;;0.20;0.20;;;;;;;;;;5033427;28;20036;-73
2023/08/10 06:36:48;;;;;;;0.10;0.10;;;;;;;;;;5027159;28;20042;-74
2023/08/10 06:39:14;;;;;;;0.20;0.20;;;;;;;;;;5028504;28;20093;-73
2023/08/10 06:41:39;;;;;;;0.20;0.20;;;;;;;;;;5028627;28;20424;-73
2023/08/10 06:44:05;;;;;;;0.50;0.35;;;;;;;;;;5012525;28;20033;-72
2023/08/10 06:46:31;;;;;;;0.20;0.20;;;;;;;;;;5032133;28;20033;-73
2023/08/10 06:48:57;;;;;;;0.17;0.17;;;;;;;;;;5019466;28;20092;-72
2023/08/10 06:51:23;;;;;;;0.30;0.30;;;;;;;;;;4987858;28;20037;-73
2023/08/10 06:53:49;;;;;;;0.30;0.30;;;;;;;;;;5032080;28;20041;-73
2023/08/10 06:56:14;;;;;;;0.20;0.20;;;;;;;;;;5031924;28;20499;-73
2023/08/10 06:58:40;;;;;;;0.20;0.20;;;;;;;;;;5031868;28;20400;-73
2023/08/10 07:01:06;;;;;;;0.20;0.20;;;;;;;;;;5013871;28;20164;-73
2023/08/10 07:03:31;;;;;;;0.20;0.20;;;;;;;;;;5031964;28;20375;-76
2023/08/10 07:05:57;;;;;;;2.25;0.65;;;;;;;;;;5031925;28;20476;-73
2023/08/10 07:08:23;;;;;;;0.20;0.20;;;;;;;;;;5031415;28;20025;-73
2023/08/10 07:10:48;;;;;;;0.20;0.20;;;;;;;;;;5013967;28;20099;-73
2023/08/10 07:13:14;;;;;;;0.30;0.30;;;;;;;;;;4996251;28;20540;-73
2023/08/10 07:15:39;;;;;;;0.20;0.20;;;;;;;;;;5031833;28;20381;-73
2023/08/10 07:18:05;;;;;;;0.75;0.75;;;;;;;;;;5014212;28;20037;-72
2023/08/10 07:20:31;;;;;;;0.30;0.30;;;;;;;;;;5014027;28;20369;-73
2023/08/10 07:22:56;;;;;;;0.20;0.20;;;;;;;;;;5014437;28;20038;-73
2023/08/10 07:25:22;;;;;;;1.08;0.73;;;;;;;;;;5014187;28;20044;-72
2023/08/10 07:27:48;;;;;;;0.20;0.20;;;;;;;;;;5000507;28;20029;-72
2023/08/10 07:30:14;;;;;;;0.20;0.20;;;;;;;;;;5020012;28;20496;-72
2023/08/10 07:32:40;;;;;;;0.30;0.30;;;;;;;;;;5024595;28;20037;-73
2023/08/10 07:35:05;;;;;;;0.20;0.20;;;;;;;;;;4993762;28;20033;-72
2023/08/10 07:37:34;;;;;;;0.20;0.20;;;;;;;;;;5014394;28;20570;-73
2023/08/10 07:39:59;;;;;;;0.98;0.98;;;;;;;;;;4993802;28;20037;-73
2023/08/10 07:42:25;;;;;;;2.10;0.60;;;;;;;;;;5011176;28;20037;-73
2023/08/10 07:44:50;;;;;;;0.20;0.20;;;;;;;;;;5011309;28;20026;-80
2023/08/10 07:47:16;;;;;;;0.20;0.20;;;;;;;;;;5011479;28;20488;-80
2023/08/10 07:49:42;;;;;;;0.30;0.30;;;;;;;;;;5011198;28;20049;-79
2023/08/10 07:52:08;;;;;;;0.30;0.30;;;;;;;;;;5028324;28;20041;-78
2023/08/10 07:54:33;;;;;;;0.20;0.20;;;;;;;;;;5030472;28;20036;-79
2023/08/10 07:56:59;;;;;;;0.20;0.20;;;;;;;;;;5030869;28;20099;-80
2023/08/10 07:59:24;;;;;;;0.20;0.20;;;;;;;;;;5030952;28;20061;-80
2023/08/10 08:01:50;;;;;;;0.30;0.30;;;;;;;;;;5030120;28;20044;-80
2023/08/10 08:04:16;;;;;;;0.30;0.30;;;;;;;;;;5030843;28;20657;-79
2023/08/10 08:06:41;;;;;;;0.30;0.30;;;;;;;;;;5031050;28;20033;-80
2023/08/10 08:09:07;;;;;;;0.30;0.30;;;;;;;;;;5030582;28;20029;-81
2023/08/10 08:11:34;;;;;;;0.22;0.22;;;;;;;;;;5030494;28;20041;-79
2023/08/10 08:14:00;;;;;;;0.20;0.20;;;;;;;;;;5029409;28;20079;-80
2023/08/10 08:16:26;;;;;;;0.20;0.20;;;;;;;;;;5028893;28;20073;-79
2023/08/10 08:18:55;;;;;;;0.20;0.20;;;;;;;;;;5011092;28;20041;-80
2023/08/10 08:21:21;;;;;;;0.30;0.30;;;;;;;;;;5028865;28;20121;-81
2023/08/10 08:23:47;;;;;;;0.30;0.30;;;;;;;;;;5028281;28;20464;-81
2023/08/10 08:26:14;;;;;;;0.28;0.28;;;;;;;;;;5011859;28;20171;-81
2023/08/10 08:28:40;;;;;;;0.90;0.30;;;;;;;;;;5034356;28;20028;-82
2023/08/10 08:31:05;;;;;;;0.22;0.22;;;;;;;;;;5035799;28;20033;-81
2023/08/10 08:33:31;;;;;;;0.20;0.20;;;;;;;;;;5032828;28;20029;-81
2023/08/10 08:35:56;;;;;;;2.88;2.63;;;;;;;;;;5031357;28;20113;-81
2023/08/10 08:38:22;;;;;;;0.30;0.30;;;;;;;;;;5031359;28;20396;-82
2023/08/10 08:40:51;;;;;;;0.30;0.30;;;;;;;;;;5030904;28;20044;-82
2023/08/10 08:43:17;;;;;;;0.28;0.28;;;;;;;;;;5030516;28;20088;-83
2023/08/10 08:45:43;;;;;;;0.30;0.30;;;;;;;;;;5030885;28;20443;-83
2023/08/10 08:48:09;;;;;;;0.30;0.30;;;;;;;;;;5030916;28;20045;-82
2023/08/10 08:50:35;;;;;;;0.40;0.40;;;;;;;;;;5030512;28;20515;-82
2023/08/10 08:53:04;;;;;;;0.30;0.30;;;;;;;;;;5030996;28;20584;-82
2023/08/10 08:55:30;;;;;;;0.40;0.40;;;;;;;;;;5030557;28;20473;-81
2023/08/10 08:57:55;;;;;;;0.20;0.20;;;;;;;;;;5029911;28;20045;-82
2023/08/10 09:00:21;;;;;;;0.30;0.30;;;;;;;;;;5030302;28;20041;-82
2023/08/10 09:02:46;;;;;;;0.40;0.40;;;;;;;;;;5030551;28;20037;-75
2023/08/10 09:05:12;;;;;;;0.40;0.40;;;;;;;;;;5012546;28;20507;-81
2023/08/10 09:07:37;;;;;;;3.83;0.55;;;;;;;;;;5011536;28;20041;-83
2023/08/10 09:10:03;;;;;;;0.40;0.40;;;;;;;;;;5012343;28;20499;-81
2023/08/10 09:12:32;;;;;;;0.35;0.35;;;;;;;;;;5029822;28;20519;-78
2023/08/10 09:15:04;;;;;;;0.55;0.55;;;;;;;;;;5029923;28;20021;-81
2023/08/10 09:17:30;;;;;;;0.40;0.40;;;;;;;;;;5029996;28;20481;-82
2023/08/10 09:19:55;;;;;;;0.30;0.30;;;;;;;;;;5028808;28;20041;-83
2023/08/10 09:22:31;;;;;;;0.32;0.32;;;;;;;;;;5012218;28;20087;-83
2023/08/10 09:24:57;;;;;;;2.10;1.15;;;;;;;;;;5029582;28;20412;-82
2023/08/10 09:27:27;;;;;;;0.40;0.40;;;;;;;;;;5029740;28;20022;-82
2023/08/10 09:29:56;;;;;;;1.98;0.63;;;;;;;;;;5029126;28;20095;-81
2023/08/10 09:32:22;;;;;;;2.28;1.17;;;;;;;;;;5029791;28;20451;-82
2023/08/10 09:34:48;;;;;;;0.30;0.30;;;;;;;;;;5029780;28;20044;-82
2023/08/10 09:37:13;;;;;;;0.52;0.52;;;;;;;;;;5029293;28;20037;-81
2023/08/10 09:39:39;;;;;;;1.88;0.93;;;;;;;;;;5029530;28;20048;-82
2023/08/10 09:42:05;;;;;;;5.18;0.85;;;;;;;;;;5012049;28;20048;-82
2023/08/10 09:44:44;;;;;;;0.30;0.30;;;;;;;;;;5029791;28;20099;-81
2023/08/10 09:47:10;;;;;;;0.32;0.32;;;;;;;;;;5029549;28;20484;-79
2023/08/10 09:49:36;;;;;;;0.30;0.30;;;;;;;;;;5029747;28;20037;-80
2023/08/10 09:52:02;;;;;;;0.70;0.70;;;;;;;;;;5020215;28;20237;-79
2023/08/10 09:54:28;;;;;;;0.60;0.60;;;;;;;;;;5017098;28;20369;-75
2023/08/10 09:56:54;;;;;;;0.30;0.30;;;;;;;;;;5018087;28;20393;-80
2023/08/10 09:59:20;;;;;;;1.90;1.80;;;;;;;;;;5018327;28;20095;-77
2023/08/10 10:01:45;;;;;;;0.32;0.32;;;;;;;;;;5016511;28;20025;-78
2023/08/10 10:04:11;;;;;;;0.40;0.40;;;;;;;;;;5018594;28;20524;-81
2023/08/10 10:06:37;;;;;;;0.40;0.40;;;;;;;;;;5017939;28;20493;-79
2023/08/10 10:09:03;;;;;;;3.15;0.90;;;;;;;;;;5019556;28;20061;-81
2023/08/10 10:11:30;;;;;;;4.22;1.60;;;;;;;;;;5029959;28;20033;-79
2023/08/10 10:13:56;;;;;;;0.30;0.30;;;;;;;;;;5011466;28;20507;-82
2023/08/10 10:16:22;;;;;;;0.60;0.60;;;;;;;;;;5011157;28;20029;-80
2023/08/10 10:18:48;;;;;;;0.40;0.40;;;;;;;;;;5028596;28;20064;-81
2023/08/10 10:21:14;;;;;;;0.60;0.60;;;;;;;;;;5030152;28;20037;-80
2023/08/10 10:23:40;;;;;;;0.63;0.63;;;;;;;;;;5010875;28;20037;-82
2023/08/10 10:26:10;;;;;;;0.93;0.85;;;;;;;;;;5029234;28;20393;-82
2023/08/10 10:28:36;;;;;;;1.02;0.63;;;;;;;;;;5031762;28;20059;-76
2023/08/10 10:31:04;;;;;;;1.25;1.08;;;;;;;;;;5028949;28;20392;-76
2023/08/10 10:33:29;;;;;;;1.10;1.02;;;;;;;;;;5012431;28;20040;-75
2023/08/10 10:36:11;;;;;;;2.22;0.77;;;;;;;;;;5028339;28;20034;-75
2023/08/10 10:38:59;;;;;;;2.00;0.82;;;;;;;;;;5028773;28;20040;-77
2023/08/10 10:41:32;;;;;;;4.80;1.33;;;;;;;;;;5028333;28;20037;-75
2023/08/10 10:43:57;;;;;;;0.85;0.70;;;;;;;;;;5028567;28;20037;-76
2023/08/10 10:46:49;;;;;;;0.98;0.85;;;;;;;;;;5028487;28;20036;-75
2023/08/10 10:49:19;;;;;;;2.15;1.20;;;;;;;;;;5025133;28;20049;-76
2023/08/10 10:51:53;;;;;;;0.50;0.50;;;;;;;;;;5028839;28;20473;-76
2023/08/10 10:54:18;;;;;;;0.95;0.80;;;;;;;;;;5027794;28;20033;-76
2023/08/10 10:56:44;;;;;;;0.52;0.52;;;;;;;;;;5028144;28;20034;-76
2023/08/10 10:59:09;;;;;;;0.30;0.30;;;;;;;;;;5028355;28;20026;-78
2023/08/10 11:01:35;;;;;;;0.80;0.80;;;;;;;;;;5028041;28;20052;-76
2023/08/10 11:04:05;;;;;;;2.92;0.95;;;;;;;;;;5028370;28;20065;-77
2023/08/10 11:06:31;;;;;;;0.68;0.60;;;;;;;;;;5028450;28;20068;-77
2023/08/10 11:08:56;;;;;;;0.88;0.88;;;;;;;;;;5024401;28;20505;-77
2023/08/10 11:11:22;;;;;;;0.93;0.93;;;;;;;;;;5027823;28;20041;-77
2023/08/10 11:13:48;;;;;;;2.45;0.52;;;;;;;;;;5028234;28;20104;-78
2023/08/10 11:16:15;;;;;;;0.52;0.52;;;;;;;;;;5026183;28;20033;-77
2023/08/10 11:18:45;;;;;;;0.45;0.45;;;;;;;;;;5008074;28;20079;-77
2023/08/10 11:21:12;;;;;;;3.63;1.48;;;;;;;;;;5009921;28;20033;-77
2023/08/10 11:23:38;;;;;;;0.40;0.40;;;;;;;;;;5027802;28;20044;-77
2023/08/10 11:26:04;;;;;;;0.40;0.40;;;;;;;;;;5021161;28;20048;-78
2023/08/10 11:28:30;;;;;;;0.40;0.40;;;;;;;;;;5002723;28;20029;-78
2023/08/10 11:31:03;;;;;;;0.70;0.70;;;;;;;;;;5021243;28;20029;-78
2023/08/10 11:33:29;;;;;;;0.65;0.63;;;;;;;;;;5012385;28;20029;-77
2023/08/10 11:35:56;;;;;;;1.98;1.02;;;;;;;;;;5026931;28;20056;-78
2023/08/10 11:38:22;;;;;;;0.40;0.40;;;;;;;;;;5034088;28;20037;-79
2023/08/10 11:40:48;;;;;;;1.48;0.70;;;;;;;;;;5033877;28;20035;-77
2023/08/10 11:43:15;;;;;;;3.05;0.85;;;;;;;;;;5033124;28;20040;-78
2023/08/10 11:45:41;;;;;;;2.08;1.08;;;;;;;;;;5024796;28;20030;-77
2023/08/10 11:48:09;;;;;;;3.13;2.05;;;;;;;;;;5030811;28;20037;-76
2023/08/10 11:50:38;;;;;;;3.67;1.63;;;;;;;;;;5013019;28;20488;-76
2023/08/10 11:53:11;;;;;;;0.98;0.63;;;;;;;;;;5013642;28;20060;-76
2023/08/10 11:55:49;;;;;;;1.23;0.70;;;;;;;;;;5030902;28;20036;-75
2023/08/10 11:58:16;;;;;;;0.30;0.30;;;;;;;;;;5031194;28;20049;-77
2023/08/10 12:00:43;;;;;;;0.52;0.52;;;;;;;;;;5027914;28;20087;-75
2023/08/10 12:03:15;;;;;;;0.90;0.63;;;;;;;;;;5030816;28;20065;-74
2023/08/10 12:05:42;;;;;;;1.38;0.73;;;;;;;;;;5022406;28;20433;-77
2023/08/10 12:08:09;;;;;;;1.98;1.77;;;;;;;;;;5011249;28;20061;-78
2023/08/10 12:10:36;;;;;;;0.52;0.52;;;;;;;;;;5011112;28;20045;-77
2023/08/10 12:13:02;;;;;;;0.85;0.60;;;;;;;;;;5011289;28;20089;-77
2023/08/10 12:15:29;;;;;;;2.08;1.58;;;;;;;;;;5011120;28;20033;-76
2023/08/10 12:17:55;;;;;;;0.45;0.45;;;;;;;;;;5007371;28;20090;-76
2023/08/10 12:20:21;;;;;;;6.45;2.95;;;;;;;;;;5021312;28;20105;-77
2023/08/10 12:22:46;;;;;;;0.38;0.38;;;;;;;;;;5024433;28;20108;-76
2023/08/10 12:25:12;;;;;;;1.35;1.08;;;;;;;;;;5028297;28;20049;-76
2023/08/10 12:27:38;;;;;;;2.22;0.75;;;;;;;;;;5022625;28;20486;-74
2023/08/10 12:30:04;;;;;;;0.40;0.40;;;;;;;;;;5026004;28;20512;-75
2023/08/10 12:32:30;;;;;;;0.52;0.52;;;;;;;;;;5027998;28;20090;-73
2023/08/10 12:34:55;;;;;;;1.02;0.82;;;;;;;;;;5023209;28;20116;-76
2023/08/10 12:37:21;;;;;;;0.52;0.52;;;;;;;;;;4984795;28;20041;-76
2023/08/10 12:39:46;;;;;;;1.50;1.27;;;;;;;;;;5028417;28;20017;-77
2023/08/10 12:42:12;;;;;;;0.80;0.47;;;;;;;;;;5028425;28;20037;-76
2023/08/10 12:44:37;;;;;;;2.22;1.10;;;;;;;;;;5028051;28;20026;-76
2023/08/10 12:47:03;;;;;;;1.40;1.17;;;;;;;;;;5029822;28;20115;-76
2023/08/10 12:49:29;;;;;;;1.25;0.38;;;;;;;;;;5030685;28;20029;-77
2023/08/10 12:51:54;;;;;;;0.63;0.63;;;;;;;;;;5030558;28;20432;-77
2023/08/10 12:54:20;;;;;;;0.50;0.50;;;;;;;;;;5030178;28;20470;-76
2023/08/10 12:56:46;;;;;;;1.83;1.15;;;;;;;;;;5012272;28;20392;-77
2023/08/10 12:59:11;;;;;;;0.40;0.40;;;;;;;;;;5027486;28;20528;-77
2023/08/10 13:01:37;;;;;;;0.45;0.40;;;;;;;;;;5027844;28;20461;-78
2023/08/10 13:04:03;;;;;;;0.60;0.60;;;;;;;;;;5027795;28;20030;-77
2023/08/10 13:06:29;;;;;;;1.85;1.05;;;;;;;;;;5028239;28;20469;-77
2023/08/10 13:08:56;;;;;;;1.38;1.08;;;;;;;;;;5028332;28;20493;-77
2023/08/10 13:11:22;;;;;;;0.70;0.70;;;;;;;;;;5027668;28;20060;-76
2023/08/10 13:13:48;;;;;;;0.60;0.60;;;;;;;;;;5028024;28;20535;-77
2023/08/10 13:16:13;;;;;;;0.30;0.30;;;;;;;;;;5027615;28;20037;-75
2023/08/10 13:18:39;;;;;;;1.25;1.15;;;;;;;;;;5027638;28;20057;-77
2023/08/10 13:21:06;;;;;;;0.70;0.70;;;;;;;;;;5027494;28;20048;-77
2023/08/10 13:23:32;;;;;;;3.80;1.30;;;;;;;;;;5029972;28;20089;-77
2023/08/10 13:25:57;;;;;;;0.40;0.40;;;;;;;;;;5011316;28;20104;-75
2023/08/10 13:28:23;;;;;;;0.43;0.43;;;;;;;;;;5027949;28;20120;-76
2023/08/10 13:30:48;;;;;;;0.60;0.55;;;;;;;;;;5018565;28;20042;-75
2023/08/10 13:33:15;;;;;;;2.28;0.93;;;;;;;;;;5026652;28;20098;-75
2023/08/10 13:35:40;;;;;;;0.38;0.38;;;;;;;;;;5013356;28;20069;-75
2023/08/10 13:38:07;;;;;;;1.75;1.05;;;;;;;;;;5028296;28;20050;-75
2023/08/10 13:40:32;;;;;;;1.65;0.82;;;;;;;;;;5011037;28;20034;-76
2023/08/10 13:42:58;;;;;;;1.15;1.00;;;;;;;;;;5030890;28;20036;-75
2023/08/10 13:45:24;;;;;;;2.08;1.08;;;;;;;;;;5031711;28;20090;-75
2023/08/10 13:47:49;;;;;;;0.63;0.63;;;;;;;;;;5022886;28;20030;-73
2023/08/10 13:50:15;;;;;;;0.63;0.63;;;;;;;;;;5004629;28;20044;-75
2023/08/10 13:52:41;;;;;;;0.43;0.43;;;;;;;;;;5012343;28;20500;-74
2023/08/10 13:55:06;;;;;;;2.30;0.75;;;;;;;;;;5002631;28;20029;-75
2023/08/10 13:57:32;;;;;;;0.50;0.50;;;;;;;;;;5022802;28;20056;-77
2023/08/10 13:59:58;;;;;;;2.67;1.52;;;;;;;;;;5017581;28;20017;-76
2023/08/10 14:02:24;;;;;;;0.35;0.35;;;;;;;;;;4998767;28;20041;-76
2023/08/10 14:04:50;;;;;;;0.47;0.40;;;;;;;;;;5018791;28;20033;-75
2023/08/10 14:07:16;;;;;;;0.30;0.30;;;;;;;;;;5015846;28;20042;-76
2023/08/10 14:09:42;;;;;;;0.50;0.50;;;;;;;;;;5005245;28;20057;-77
2023/08/10 14:12:08;;;;;;;0.55;0.50;;;;;;;;;;5012941;28;20041;-75
2023/08/10 14:14:34;;;;;;;0.90;0.55;;;;;;;;;;5016607;28;20433;-74
2023/08/10 14:16:59;;;;;;;0.40;0.40;;;;;;;;;;5025684;28;20130;-75
2023/08/10 14:19:25;;;;;;;0.57;0.57;;;;;;;;;;5013824;28;20072;-76
2023/08/10 14:21:51;;;;;;;2.50;1.40;;;;;;;;;;5006326;28;20041;-77
2023/08/10 14:24:16;;;;;;;1.05;0.88;;;;;;;;;;5000858;28;20545;-75
2023/08/10 14:26:42;;;;;;;1.17;0.47;;;;;;;;;;4993501;28;20392;-77
2023/08/10 14:29:08;;;;;;;0.50;0.50;;;;;;;;;;5029654;28;20025;-76
2023/08/10 14:31:34;;;;;;;1.95;0.85;;;;;;;;;;5033839;28;20049;-77
2023/08/10 14:33:59;;;;;;;0.30;0.30;;;;;;;;;;5032285;28;20031;-76
2023/08/10 14:36:25;;;;;;;1.27;0.85;;;;;;;;;;5033154;28;20046;-75
2023/08/10 14:38:51;;;;;;;0.70;0.70;;;;;;;;;;5033521;28;20091;-76